Time;durP1;ratioP1;P1;durP2;ratioP2;P2;SDS_P1;SDS_P2;PMS_P1;PMS_P2;Temp;Humidity;BMP_temperature;BMP_pressure;BME280_temperature;BME280_humidity;BME280_pressure;Samples;Min_cycle;Max_cycle;Signal;HPM_P1;HPM_P2
2024/01/09 00:02:53;;;;;;;12.67;8.73;;;;;;;1.83;42.75;99658.63;6710461;29;20243;-82
2024/01/09 00:06:16;;;;;;;15.00;9.47;;;;;;;1.79;41.88;99631.44;6710413;29;20722;-82
2024/01/09 00:09:37;;;;;;;12.80;9.40;;;;;;;1.44;42.84;99656.63;6722861;29;20215;-82
2024/01/09 00:12:59;;;;;;;12.70;9.60;;;;;;;1.06;43.53;99669.56;6750362;29;20216;-82
2024/01/09 00:16:21;;;;;;;12.87;9.53;;;;;;;1.81;42.24;99657.88;6731628;29;20694;-83
2024/01/09 00:19:44;;;;;;;14.70;9.10;;;;;;;1.01;43.28;99675.22;6739275;29;20744;-81
2024/01/09 00:23:05;;;;;;;13.97;9.47;;;;;;;1.01;43.31;99677.06;6734397;29;20348;-81
2024/01/09 00:26:27;;;;;;;12.53;9.30;;;;;;;1.56;42.84;99660.91;6738298;29;20259;-82
2024/01/09 00:29:49;;;;;;;14.13;9.70;;;;;;;1.88;41.71;99653.72;6735939;29;20239;-83
2024/01/09 00:33:10;;;;;;;11.70;9.23;;;;;;;1.80;42.44;99649.06;6735864;29;20231;-82
2024/01/09 00:36:33;;;;;;;11.47;8.90;;;;;;;1.47;42.03;99649.25;6735483;29;20296;-82
2024/01/09 00:39:54;;;;;;;24.43;10.00;;;;;;;1.88;41.72;99654.56;6731976;29;20764;-82
2024/01/09 00:43:16;;;;;;;14.13;9.10;;;;;;;1.55;42.86;99668.03;6735343;29;20216;-82
2024/01/09 00:46:37;;;;;;;16.67;10.00;;;;;;;1.40;42.39;99663.16;6734602;29;20256;-82
2024/01/09 00:49:59;;;;;;;15.23;9.83;;;;;;;1.52;42.23;99659.47;6732869;29;20212;-80
2024/01/09 00:53:22;;;;;;;11.80;9.07;;;;;;;1.88;41.40;99662.56;6736661;29;20265;-82
2024/01/09 00:56:45;;;;;;;12.23;9.50;;;;;;;1.72;42.08;99662.16;6735661;29;20821;-83
2024/01/09 01:00:08;;;;;;;12.30;8.67;;;;;;;1.65;41.61;99655.66;6734549;29;20693;-78
2024/01/09 01:03:31;;;;;;;13.73;9.40;;;;;;;1.04;41.95;99648.44;6734479;29;20239;-79
2024/01/09 01:06:52;;;;;;;13.10;9.83;;;;;;;1.33;41.97;99659.31;6732517;29;20236;-78
2024/01/09 01:10:15;;;;;;;12.60;9.93;;;;;;;0.79;41.91;99650.56;6734210;29;20236;-79
2024/01/09 01:13:37;;;;;;;14.10;8.80;;;;;;;1.54;42.15;99657.56;6733553;29;20296;-80
2024/01/09 01:16:58;;;;;;;14.77;10.07;;;;;;;1.81;41.73;99663.19;6733813;29;20224;-81
2024/01/09 01:20:20;;;;;;;14.10;9.43;;;;;;;1.71;42.28;99672.94;6726872;29;20297;-80
2024/01/09 01:23:41;;;;;;;13.77;9.40;;;;;;;1.50;41.26;99664.94;6733238;29;20584;-81
2024/01/09 01:27:05;;;;;;;12.60;9.70;;;;;;;1.51;42.04;99679.06;6732940;29;20296;-81
2024/01/09 01:30:26;;;;;;;13.83;10.17;;;;;;;1.74;41.44;99662.03;6733372;29;20204;-81
2024/01/09 01:33:48;;;;;;;12.00;9.23;;;;;;;1.76;42.29;99684.84;6734019;29;20308;-79
2024/01/09 01:37:09;;;;;;;11.40;9.43;;;;;;;1.72;42.02;99686.06;6732290;29;20252;-80
2024/01/09 01:40:31;;;;;;;15.43;10.23;;;;;;;1.71;41.69;99681.75;6733706;29;20962;-80
2024/01/09 01:43:53;;;;;;;13.70;9.73;;;;;;;1.42;42.75;99685.97;6731914;29;20278;-79
2024/01/09 01:47:15;;;;;;;13.83;9.60;;;;;;;1.14;42.75;99677.75;6733633;29;20315;-79
2024/01/09 01:50:39;;;;;;;15.30;10.03;;;;;;;1.44;42.73;99684.06;6733685;29;20220;-80
2024/01/09 01:54:00;;;;;;;17.33;9.77;;;;;;;1.13;42.44;99695.47;6716629;29;20211;-79
2024/01/09 01:57:22;;;;;;;14.40;9.20;;;;;;;1.52;42.27;99680.72;6730496;29;20259;-81
2024/01/09 02:00:45;;;;;;;13.17;9.50;;;;;;;0.87;42.98;99682.63;6731013;29;20232;-80
2024/01/09 02:04:08;;;;;;;14.17;10.23;;;;;;;1.20;42.93;99687.88;6705056;29;20217;-80
2024/01/09 02:07:32;;;;;;;15.00;10.57;;;;;;;1.45;42.34;99682.22;6721300;29;20322;-80
2024/01/09 02:10:54;;;;;;;14.67;9.77;;;;;;;1.51;41.56;99665.75;6748050;29;20215;-80
2024/01/09 02:14:15;;;;;;;13.30;9.93;;;;;;;1.21;42.71;99679.78;6729114;29;20300;-81
2024/01/09 02:17:38;;;;;;;15.57;9.63;;;;;;;1.43;42.93;99681.50;6704054;29;20261;-80
2024/01/09 02:21:00;;;;;;;16.20;11.27;;;;;;;1.11;42.18;99686.81;6705943;29;20229;-79
2024/01/09 02:24:21;;;;;;;16.00;10.03;;;;;;;1.22;42.60;99667.31;6706510;29;20342;-80
2024/01/09 02:27:50;;;;;;;15.30;10.27;;;;;;;1.41;41.92;99689.59;6706446;29;20241;-82
2024/01/09 02:31:13;;;;;;;15.10;10.00;;;;;;;0.98;42.83;99682.59;6713030;29;20370;-81
2024/01/09 02:34:36;;;;;;;13.20;9.40;;;;;;;1.01;41.70;99688.50;6733956;29;20251;-80
2024/01/09 02:37:58;;;;;;;13.27;9.33;;;;;;;1.15;41.82;99688.25;6729746;29;20319;-81
2024/01/09 02:41:19;;;;;;;14.13;10.00;;;;;;;1.24;42.58;99682.16;6730003;29;20239;-81
2024/01/09 02:44:40;;;;;;;12.93;9.50;;;;;;;1.04;42.50;99672.34;6730201;29;20740;-81
2024/01/09 02:48:04;;;;;;;11.63;9.37;;;;;;;1.44;41.27;99672.56;6729802;29;20364;-80
2024/01/09 02:51:26;;;;;;;20.27;13.17;;;;;;;1.09;42.53;99672.81;6729135;29;20212;-80
2024/01/09 02:54:49;;;;;;;15.27;10.50;;;;;;;0.93;42.22;99648.47;6730761;29;20250;-80
2024/01/09 02:58:10;;;;;;;19.70;12.00;;;;;;;1.09;42.93;99672.81;6729583;29;20266;-82
2024/01/09 03:01:32;;;;;;;36.70;19.23;;;;;;;1.12;42.83;99653.97;6731237;29;20721;-79
2024/01/09 03:04:55;;;;;;;35.33;18.17;;;;;;;0.98;43.41;99672.84;6730531;29;20224;-80
2024/01/09 03:08:16;;;;;;;20.70;12.10;;;;;;;1.08;42.14;99655.16;6729305;29;20235;-80
2024/01/09 03:11:38;;;;;;;23.43;13.10;;;;;;;0.74;43.64;99658.03;6729808;29;20208;-80
2024/01/09 03:14:59;;;;;;;19.20;12.30;;;;;;;0.80;43.40;99666.38;6753247;29;20363;-80
2024/01/09 03:18:21;;;;;;;14.40;11.20;;;;;;;0.79;43.22;99675.28;6754631;29;20239;-78
2024/01/09 03:21:44;;;;;;;16.43;11.13;;;;;;;0.59;43.87;99667.25;6739895;29;20367;-80
2024/01/09 03:25:06;;;;;;;19.13;11.73;;;;;;;0.66;43.37;99668.44;6730741;29;20307;-79
2024/01/09 03:28:28;;;;;;;12.90;9.73;;;;;;;0.60;43.77;99650.34;6733548;29;20231;-81
2024/01/09 03:31:50;;;;;;;16.30;10.80;;;;;;;0.73;43.13;99672.28;6728010;29;20213;-81
2024/01/09 03:35:12;;;;;;;15.07;10.17;;;;;;;1.14;42.85;99664.47;6729206;29;20741;-81
2024/01/09 03:38:35;;;;;;;15.50;10.43;;;;;;;0.83;43.13;99666.09;6729185;29;20319;-80
2024/01/09 03:41:56;;;;;;;17.73;10.47;;;;;;;0.65;43.98;99667.56;6731272;29;20377;-80
2024/01/09 03:45:18;;;;;;;18.03;10.33;;;;;;;0.69;43.53;99642.50;6740117;29;20683;-84
2024/01/09 03:48:39;;;;;;;12.97;9.90;;;;;;;0.49;43.07;99671.56;6738717;29;20276;-80
2024/01/09 03:52:01;;;;;;;17.00;10.30;;;;;;;0.80;42.64;99663.72;6731114;29;20284;-80
2024/01/09 03:55:25;;;;;;;16.43;9.17;;;;;;;0.55;41.78;99663.13;6735045;29;20280;-80
2024/01/09 03:58:46;;;;;;;14.33;9.50;;;;;;;0.65;41.70;99617.16;6736705;29;20274;-79
2024/01/09 04:02:08;;;;;;;14.53;9.57;;;;;;;0.58;41.67;99662.88;6737755;29;20813;-80
2024/01/09 04:05:29;;;;;;;14.57;10.10;;;;;;;0.68;42.58;99662.03;6743693;29;20236;-81
2024/01/09 04:08:51;;;;;;;19.57;9.67;;;;;;;0.90;42.37;99658.50;6735390;29;20356;-80
2024/01/09 04:12:14;;;;;;;13.50;9.30;;;;;;;0.87;42.28;99656.06;6736742;29;20235;-80
2024/01/09 04:15:35;;;;;;;13.57;10.17;;;;;;;0.65;43.01;99675.53;6735949;29;20689;-80
2024/01/09 04:18:57;;;;;;;15.73;10.50;;;;;;;0.67;42.82;99668.28;6736791;29;20368;-80
2024/01/09 04:22:18;;;;;;;15.07;10.07;;;;;;;0.21;44.05;99648.19;6735813;29;20296;-81
2024/01/09 04:25:40;;;;;;;14.23;9.80;;;;;;;0.49;43.33;99669.75;6735186;29;20343;-80
2024/01/09 04:29:02;;;;;;;12.67;8.93;;;;;;;0.47;43.35;99653.13;6733396;29;20702;-80
2024/01/09 04:32:24;;;;;;;16.10;9.33;;;;;;;0.38;42.02;99669.78;6734049;29;20341;-81
2024/01/09 04:35:45;;;;;;;16.97;9.83;;;;;;;0.85;42.11;99668.63;6732643;29;20806;-80
2024/01/09 04:39:07;;;;;;;14.37;9.63;;;;;;;0.81;41.96;99673.34;6733441;29;20240;-80
2024/01/09 04:42:28;;;;;;;13.90;9.57;;;;;;;0.79;41.79;99670.00;6740775;29;20327;-79
2024/01/09 04:45:51;;;;;;;15.53;9.53;;;;;;;0.85;43.01;99677.47;6734153;29;20752;-80
2024/01/09 04:49:13;;;;;;;15.23;10.67;;;;;;;0.92;41.88;99678.66;6707469;29;20300;-80
2024/01/09 04:52:36;;;;;;;13.30;9.47;;;;;;;0.22;42.42;99665.78;6708320;29;20346;-80
2024/01/09 04:55:59;;;;;;;15.53;9.63;;;;;;;0.54;42.32;99667.56;6708254;29;20588;-81
2024/01/09 04:59:21;;;;;;;14.83;10.30;;;;;;;0.55;43.15;99684.34;6708548;29;20217;-80
2024/01/09 05:02:44;;;;;;;14.47;9.53;;;;;;;0.35;42.69;99663.84;6726767;29;20248;-80
2024/01/09 05:06:05;;;;;;;16.90;10.60;;;;;;;0.22;43.13;99663.13;6731372;29;20337;-80
2024/01/09 05:09:27;;;;;;;12.77;9.57;;;;;;;0.33;43.35;99666.63;6734250;29;20697;-79
2024/01/09 05:12:48;;;;;;;14.33;10.07;;;;;;;-0.08;44.76;99680.56;6733901;29;20216;-80
2024/01/09 05:16:10;;;;;;;13.37;10.90;;;;;;;-0.04;45.28;99681.03;6734667;29;20837;-81
2024/01/09 05:19:33;;;;;;;14.77;10.17;;;;;;;-0.03;44.57;99671.28;6732995;29;20240;-79
2024/01/09 05:22:56;;;;;;;12.93;8.70;;;;;;;0.24;43.39;99667.34;6733259;29;20385;-80
2024/01/09 05:26:17;;;;;;;15.83;10.60;;;;;;;0.32;43.93;99670.25;6732696;29;20255;-81
2024/01/09 05:29:39;;;;;;;12.40;10.10;;;;;;;-0.31;44.36;99679.66;6732908;29;20348;-81
2024/01/09 05:33:01;;;;;;;13.27;9.57;;;;;;;0.08;44.10;99672.13;6733323;29;20259;-80
2024/01/09 05:36:24;;;;;;;14.77;9.43;;;;;;;0.52;42.75;99664.22;6732623;29;20380;-80
2024/01/09 05:39:47;;;;;;;14.70;9.83;;;;;;;0.49;43.27;99645.88;6741549;29;20228;-81
2024/01/09 05:43:09;;;;;;;17.27;10.63;;;;;;;0.63;43.34;99677.47;6732513;29;20311;-80
2024/01/09 05:46:30;;;;;;;14.23;9.83;;;;;;;0.68;42.33;99675.31;6732995;29;20395;-81
2024/01/09 05:49:52;;;;;;;15.20;9.67;;;;;;;0.47;43.36;99669.03;6734073;29;20215;-79
2024/01/09 05:53:15;;;;;;;13.80;9.70;;;;;;;0.35;43.61;99680.59;6732949;29;20240;-79
2024/01/09 05:56:37;;;;;;;13.20;10.27;;;;;;;0.11;44.22;99666.63;6732978;29;20925;-81
2024/01/09 05:59:58;;;;;;;17.90;10.37;;;;;;;0.24;43.89;99677.94;6733964;29;20213;-80
2024/01/09 06:03:20;;;;;;;14.00;10.37;;;;;;;-0.09;44.86;99650.56;6734166;29;20721;-81
2024/01/09 06:06:41;;;;;;;15.53;10.57;;;;;;;0.07;44.82;99688.19;6733699;29;20321;-80
2024/01/09 06:10:04;;;;;;;26.03;11.30;;;;;;;-0.16;45.02;99681.97;6733378;29;20239;-79
2024/01/09 06:13:27;;;;;;;16.20;10.27;;;;;;;-0.70;45.08;99661.47;6733063;29;20255;-80
2024/01/09 06:16:49;;;;;;;14.43;10.00;;;;;;;-0.13;45.21;99682.72;6739387;29;20239;-79
2024/01/09 06:20:11;;;;;;;12.73;9.83;;;;;;;0.04;44.48;99672.50;6732511;29;20296;-79
2024/01/09 06:23:33;;;;;;;15.73;10.17;;;;;;;0.02;44.79;99696.47;6732621;29;20691;-80
2024/01/09 06:26:55;;;;;;;12.93;10.23;;;;;;;-0.17;44.74;99684.78;6732248;29;20319;-80
2024/01/09 06:30:17;;;;;;;17.00;9.93;;;;;;;-0.30;43.71;99686.63;6733353;29;20272;-80
2024/01/09 06:33:39;;;;;;;15.63;10.57;;;;;;;-0.14;44.73;99694.28;6733549;29;20231;-81
2024/01/09 06:37:00;;;;;;;14.33;10.80;;;;;;;0.18;44.55;99696.16;6742873;29;20730;-80
2024/01/09 06:40:23;;;;;;;20.60;11.63;;;;;;;0.07;44.58;99701.44;6732146;29;20283;-79
2024/01/09 06:43:46;;;;;;;16.87;11.20;;;;;;;-0.31;45.21;99702.66;6746474;29;20243;-80
2024/01/09 06:47:08;;;;;;;15.20;10.43;;;;;;;0.01;44.50;99676.22;6743440;29;20290;-80
2024/01/09 06:50:29;;;;;;;15.27;9.87;;;;;;;-0.03;43.81;99693.34;6732298;29;20390;-79
2024/01/09 06:53:51;;;;;;;14.07;10.03;;;;;;;-0.01;44.61;99702.03;6722824;29;20288;-82
2024/01/09 06:57:14;;;;;;;15.73;11.13;;;;;;;0.00;44.68;99682.50;6704226;29;20237;-81
2024/01/09 07:00:37;;;;;;;14.00;9.73;;;;;;;0.03;44.63;99721.19;6705832;29;20247;-81
2024/01/09 07:03:58;;;;;;;16.73;11.00;;;;;;;-0.06;45.17;99720.06;6705907;29;20838;-81
2024/01/09 07:07:20;;;;;;;17.40;10.93;;;;;;;-0.13;45.42;99695.00;6705341;29;20319;-82
2024/01/09 07:10:42;;;;;;;14.30;9.43;;;;;;;-0.28;45.79;99720.97;6709556;29;20286;-81
2024/01/09 07:14:03;;;;;;;18.10;10.73;;;;;;;-0.03;45.16;99719.84;6734223;29;20231;-82
2024/01/09 07:17:26;;;;;;;18.50;11.73;;;;;;;-0.10;44.46;99720.44;6736548;29;20850;-82
2024/01/09 07:20:48;;;;;;;14.60;10.57;;;;;;;-0.23;45.58;99718.81;6728952;29;20253;-81
2024/01/09 07:24:10;;;;;;;18.77;12.37;;;;;;;-0.05;45.12;99718.28;6735316;29;20372;-81
2024/01/09 07:27:31;;;;;;;18.57;12.43;;;;;;;0.15;44.77;99718.44;6733736;29;20287;-81
2024/01/09 07:30:54;;;;;;;22.27;13.43;;;;;;;-0.10;45.59;99718.59;6747302;29;20239;-83
2024/01/09 07:34:17;;;;;;;24.23;13.27;;;;;;;-0.30;46.17;99689.28;6738419;29;20204;-81
2024/01/09 07:37:38;;;;;;;24.73;14.87;;;;;;;-0.24;45.74;99725.91;6745127;29;20255;-82
2024/01/09 07:41:00;;;;;;;20.70;13.17;;;;;;;0.06;45.71;99727.09;6765829;29;20239;-84
2024/01/09 07:44:21;;;;;;;24.53;14.37;;;;;;;-0.13;45.25;99700.31;6741873;29;20387;-81
2024/01/09 07:47:43;;;;;;;22.13;14.33;;;;;;;-0.03;45.99;99740.22;6740198;29;20267;-81
2024/01/09 07:51:06;;;;;;;24.23;15.83;;;;;;;0.03;46.33;99739.75;6739781;29;20212;-81
2024/01/09 07:54:28;;;;;;;29.27;17.80;;;;;;;0.24;46.59;99740.75;6738555;29;20217;-83
2024/01/09 07:57:49;;;;;;;29.70;16.87;;;;;;;0.60;45.48;99743.22;6738066;29;20315;-81
2024/01/09 08:01:12;;;;;;;26.13;17.53;;;;;;;0.61;45.58;99743.06;6737453;29;20706;-81
2024/01/09 08:04:33;;;;;;;30.00;17.63;;;;;;;0.38;45.72;99749.34;6746978;29;20343;-82
2024/01/09 08:07:56;;;;;;;29.73;17.70;;;;;;;0.54;45.87;99749.00;6736060;29;20235;-82
2024/01/09 08:11:18;;;;;;;35.90;19.10;;;;;;;0.93;45.13;99751.16;6736617;29;20216;-81
2024/01/09 08:14:39;;;;;;;28.13;17.07;;;;;;;1.02;43.72;99735.31;6743803;29;20838;-81
2024/01/09 08:18:01;;;;;;;22.60;14.23;;;;;;;1.03;42.59;99734.38;6739422;29;20312;-82
2024/01/09 08:21:23;;;;;;;41.13;24.90;;;;;;;0.77;42.06;99724.97;6734572;29;20224;-81
2024/01/09 08:24:46;;;;;;;25.27;14.03;;;;;;;1.08;41.28;99742.78;6737846;29;20208;-82
2024/01/09 08:28:08;;;;;;;17.23;12.13;;;;;;;0.79;40.27;99746.97;6740439;29;20315;-81
2024/01/09 08:31:30;;;;;;;15.20;9.83;;;;;;;0.57;40.94;99748.75;6738335;29;20218;-80
2024/01/09 08:34:51;;;;;;;16.07;11.67;;;;;;;1.00;40.88;99734.59;6737897;29;20276;-81
2024/01/09 08:38:13;;;;;;;19.23;11.87;;;;;;;1.12;41.37;99730.16;6733091;29;20259;-80
2024/01/09 08:41:36;;;;;;;16.73;10.97;;;;;;;0.97;40.32;99741.97;6734505;29;20220;-81
2024/01/09 08:44:57;;;;;;;19.20;11.40;;;;;;;1.34;40.12;99741.56;6733156;29;20873;-82
2024/01/09 08:48:19;;;;;;;18.47;11.73;;;;;;;3.59;35.09;99731.63;6735825;29;20268;-81
2024/01/09 08:51:40;;;;;;;19.60;11.13;;;;;;;3.23;35.07;99722.41;6731802;29;20443;-81
2024/01/09 08:55:04;;;;;;;18.53;12.37;;;;;;;3.72;34.60;99719.66;6736359;29;20209;-81
2024/01/09 08:58:27;;;;;;;16.30;10.67;;;;;;;3.75;33.99;99722.06;6739632;29;20846;-80
2024/01/09 09:01:48;;;;;;;14.47;9.90;;;;;;;2.61;34.82;99617.13;6732772;29;20722;-81
2024/01/09 09:05:11;;;;;;;18.40;11.60;;;;;;;2.64;36.02;99728.66;6736187;29;20279;-82
2024/01/09 09:08:33;;;;;;;15.10;11.17;;;;;;;1.92;37.27;99740.25;6735988;29;20405;-80
2024/01/09 09:11:54;;;;;;;15.27;10.83;;;;;;;2.19;37.54;99738.75;6739013;29;20312;-82
2024/01/09 09:15:18;;;;;;;18.47;10.73;;;;;;;0.85;38.09;99746.47;6740232;29;20224;-80
2024/01/09 09:22:15;;;;;;;15.30;11.17;;;;;;;1.52;37.81;99749.81;6735066;29;20559;-80
2024/01/09 09:25:36;;;;;;;17.97;11.70;;;;;;;1.58;38.02;99742.19;6735243;29;20296;-81
2024/01/09 09:28:59;;;;;;;17.17;10.87;;;;;;;0.66;38.72;99732.13;6735925;29;20244;-81
2024/01/09 09:32:22;;;;;;;16.80;10.83;;;;;;;0.41;39.78;99680.13;6735105;29;20211;-81
2024/01/09 09:35:44;;;;;;;16.07;11.20;;;;;;;1.49;38.43;99688.97;6734265;29;20208;-81
2024/01/09 09:39:05;;;;;;;15.70;11.10;;;;;;;1.62;37.45;99751.63;6739708;29;20236;-83
2024/01/09 09:42:27;;;;;;;15.13;11.10;;;;;;;1.99;37.53;99730.78;6737994;29;20577;-82
2024/01/09 09:45:55;;;;;;;17.60;9.90;;;;;;;2.75;36.39;99700.13;6736911;29;20719;-81
2024/01/09 09:49:18;;;;;;;15.37;10.13;;;;;;;1.79;37.26;99735.13;6735951;29;20684;-81
2024/01/09 09:52:41;;;;;;;18.03;10.23;;;;;;;2.36;36.90;99708.06;6734265;29;20216;-81
2024/01/09 09:56:03;;;;;;;19.23;12.37;;;;;;;1.82;36.79;99726.03;6732821;29;20212;-81
2024/01/09 09:59:25;;;;;;;16.63;10.30;;;;;;;1.18;38.60;99716.38;6732934;29;20204;-80
2024/01/09 10:02:49;;;;;;;14.60;10.97;;;;;;;2.52;35.52;99697.78;6733132;29;20287;-80
2024/01/09 10:06:12;;;;;;;17.50;11.30;;;;;;;2.69;35.25;99702.47;6732720;29;20572;-82
2024/01/09 10:09:37;;;;;;;20.33;10.97;;;;;;;1.45;37.22;99720.28;6733176;29;20674;-81
2024/01/09 10:12:58;;;;;;;16.80;11.17;;;;;;;1.79;36.55;99713.00;6739689;29;20256;-82
2024/01/09 10:16:20;;;;;;;14.70;10.60;;;;;;;1.94;38.09;99717.88;6732575;29;20268;-80
2024/01/09 10:19:44;;;;;;;17.23;10.03;;;;;;;2.08;36.00;99701.59;6732534;29;20224;-81
2024/01/09 10:23:08;;;;;;;16.10;10.73;;;;;;;2.14;35.78;99641.72;6738331;29;20252;-83
2024/01/09 10:26:30;;;;;;;14.83;10.57;;;;;;;1.92;37.52;99703.88;6735983;29;20268;-80
2024/01/09 10:29:52;;;;;;;15.67;11.27;;;;;;;1.74;37.78;99688.63;6736233;29;20279;-80
2024/01/09 10:33:14;;;;;;;13.73;10.43;;;;;;;2.36;36.20;99690.28;6738601;29;20356;-81
2024/01/09 10:36:36;;;;;;;11.47;9.63;;;;;;;2.76;35.04;99700.94;6732680;29;20728;-80
2024/01/09 10:39:59;;;;;;;18.03;10.57;;;;;;;2.63;34.97;99636.47;6736339;29;20583;-81
2024/01/09 10:43:43;;;;;;;15.93;10.57;;;;;;;3.20;34.58;99684.56;6732066;29;20240;-80
2024/01/09 10:47:05;;;;;;;15.07;9.83;;;;;;;3.09;34.26;99693.50;6729644;29;20228;-80
2024/01/09 10:50:27;;;;;;;19.30;10.80;;;;;;;3.39;34.42;99690.75;6727008;29;20237;-81
2024/01/09 10:53:49;;;;;;;17.37;12.03;;;;;;;3.38;32.93;99677.56;6733126;29;20213;-80
2024/01/09 10:57:14;;;;;;;16.10;10.10;;;;;;;4.28;32.95;99675.25;6732029;29;20332;-81
2024/01/09 11:00:36;;;;;;;19.23;11.60;;;;;;;5.14;32.10;99664.19;6732963;29;20212;-81
2024/01/09 11:03:58;;;;;;;14.17;9.73;;;;;;;3.82;33.40;99677.00;6731647;29;20779;-80
2024/01/09 11:07:20;;;;;;;13.43;9.67;;;;;;;3.91;32.96;99644.16;6731700;29;20231;-80
2024/01/09 11:10:42;;;;;;;14.80;10.27;;;;;;;4.04;32.33;99682.88;6719415;29;20212;-80
2024/01/09 11:14:07;;;;;;;15.23;10.57;;;;;;;4.05;33.43;99673.91;6708344;29;20284;-80
2024/01/09 11:17:30;;;;;;;16.57;10.07;;;;;;;5.44;30.96;99626.41;6731315;29;20632;-80
2024/01/09 11:20:59;;;;;;;16.90;10.27;;;;;;;4.75;31.27;99647.53;6727001;29;20216;-82
2024/01/09 11:24:24;;;;;;;13.20;9.03;;;;;;;4.81;31.45;99657.63;6731408;29;20380;-80
2024/01/09 11:27:49;;;;;;;15.80;9.47;;;;;;;4.50;31.79;99634.00;6731901;29;20251;-80
2024/01/09 11:31:16;;;;;;;14.83;9.60;;;;;;;4.68;30.85;99648.25;6737846;29;20579;-80
2024/01/09 11:34:41;;;;;;;12.17;9.70;;;;;;;4.18;31.39;99642.41;6731899;29;20199;-80
2024/01/09 11:38:02;;;;;;;14.10;9.73;;;;;;;5.06;31.42;99634.69;6731173;29;20232;-80
2024/01/09 11:41:37;;;;;;;13.17;8.97;;;;;;;5.74;30.38;99621.50;6732007;29;20307;-82
2024/01/09 11:44:59;;;;;;;13.03;9.27;;;;;;;5.42;30.31;99636.41;6739525;29;20225;-80
2024/01/09 11:48:21;;;;;;;14.67;9.57;;;;;;;5.41;30.40;99610.66;6723088;29;20369;-81
2024/01/09 11:51:43;;;;;;;16.83;9.17;;;;;;;4.93;30.80;99615.50;6737094;29;20215;-80
2024/01/09 11:55:06;;;;;;;13.90;9.37;;;;;;;4.97;29.77;99590.16;6742300;29;20692;-80
2024/01/09 11:58:27;;;;;;;15.77;9.73;;;;;;;3.62;31.79;99614.00;6741153;29;20260;-81
2024/01/09 12:01:51;;;;;;;13.10;9.50;;;;;;;4.01;32.17;99611.13;6745393;29;20348;-80
2024/01/09 12:05:13;;;;;;;12.63;9.60;;;;;;;3.84;31.29;99614.53;6726232;29;20236;-80
2024/01/09 12:08:35;;;;;;;14.93;9.57;;;;;;;3.97;31.37;99615.09;6734715;29;20255;-80
2024/01/09 12:11:57;;;;;;;13.13;9.40;;;;;;;4.01;31.85;99578.28;6756332;29;20745;-81
2024/01/09 12:15:19;;;;;;;11.20;8.60;;;;;;;4.77;31.07;99576.09;6758793;29;20671;-81
2024/01/09 12:18:47;;;;;;;11.47;8.87;;;;;;;4.35;32.37;99600.75;6747182;29;20247;-81
2024/01/09 12:22:10;;;;;;;15.30;8.93;;;;;;;4.61;31.96;99593.75;6722830;29;20810;-81
2024/01/09 12:25:32;;;;;;;15.97;9.13;;;;;;;4.54;31.17;99571.31;6724432;29;20323;-81
2024/01/09 12:28:55;;;;;;;14.27;9.13;;;;;;;4.93;30.17;99524.66;6729530;29;20702;-82
2024/01/09 12:32:17;;;;;;;12.33;9.43;;;;;;;4.73;29.72;99520.44;6722473;29;20232;-80
2024/01/09 12:35:42;;;;;;;14.43;8.90;;;;;;;5.04;30.59;99577.88;6733795;29;20214;-81
2024/01/09 12:39:08;;;;;;;13.33;9.93;;;;;;;4.30;31.37;99579.03;6733477;29;20237;-82
2024/01/09 12:42:29;;;;;;;14.57;9.90;;;;;;;5.39;30.66;99576.06;6747457;29;20230;-82
2024/01/09 12:45:51;;;;;;;18.77;11.40;;;;;;;5.71;30.15;99565.63;6741429;29;20730;-80
2024/01/09 12:49:13;;;;;;;16.10;9.77;;;;;;;5.68;30.31;99575.78;6733698;29;20213;-80
2024/01/09 12:52:35;;;;;;;13.77;9.50;;;;;;;5.39;30.53;99576.06;6711927;29;20221;-80
2024/01/09 12:56:06;;;;;;;12.57;8.43;;;;;;;5.41;30.30;99575.88;6726655;29;20304;-80
2024/01/09 12:59:28;;;;;;;14.87;9.80;;;;;;;4.96;30.74;99570.59;6764141;29;20188;-80
2024/01/09 13:02:49;;;;;;;12.30;8.23;;;;;;;5.17;30.13;99573.00;6769396;29;20262;-81
2024/01/09 13:06:11;;;;;;;11.70;9.17;;;;;;;4.81;31.70;99560.59;6762046;29;20266;-80
2024/01/09 13:09:33;;;;;;;12.27;8.73;;;;;;;5.58;30.30;99551.81;6761731;29;20215;-80
2024/01/09 13:12:56;;;;;;;13.37;9.20;;;;;;;5.61;30.12;99564.84;6755843;29;20264;-80
2024/01/09 13:16:18;;;;;;;12.10;8.80;;;;;;;5.87;29.35;99527.44;6706017;29;20341;-82
2024/01/09 13:19:40;;;;;;;11.00;8.97;;;;;;;5.34;30.91;99569.47;6709057;29;20229;-80
2024/01/09 13:23:01;;;;;;;12.60;8.43;;;;;;;6.18;29.36;99558.09;6708573;29;20270;-80
2024/01/09 13:26:23;;;;;;;15.30;8.50;;;;;;;5.54;29.70;99562.97;6706948;29;20238;-80
2024/01/09 13:29:46;;;;;;;12.13;8.60;;;;;;;4.70;31.42;99545.63;6708282;29;20811;-81
2024/01/09 13:33:09;;;;;;;13.03;8.33;;;;;;;5.90;30.28;99561.94;6708473;29;20730;-80
2024/01/09 13:36:31;;;;;;;14.30;9.03;;;;;;;6.20;29.46;99548.88;6706981;29;20229;-80
2024/01/09 13:39:53;;;;;;;12.07;9.10;;;;;;;5.70;29.31;99541.69;6707600;29;20238;-83
2024/01/09 13:43:14;;;;;;;13.63;8.20;;;;;;;5.79;30.01;99575.53;6707512;29;20237;-79
2024/01/09 13:46:37;;;;;;;13.20;10.00;;;;;;;5.62;30.01;99560.34;6706466;29;20238;-80
2024/01/09 13:49:59;;;;;;;10.17;8.23;;;;;;;6.12;29.51;99548.84;6707704;29;20277;-79
2024/01/09 13:53:20;;;;;;;12.37;8.30;;;;;;;6.08;29.32;99541.31;6707446;29;20252;-81
2024/01/09 13:56:42;;;;;;;11.77;8.93;;;;;;;6.39;28.51;99558.53;6706780;29;20229;-81
2024/01/09 14:00:09;;;;;;;23.43;8.67;;;;;;;5.37;29.92;99559.31;6707284;29;20275;-80
2024/01/09 14:03:32;;;;;;;11.80;8.43;;;;;;;6.24;29.51;99552.94;6707511;29;20382;-81
2024/01/09 14:06:53;;;;;;;11.07;7.83;;;;;;;5.72;29.49;99569.97;6706721;29;20291;-81
2024/01/09 14:10:15;;;;;;;11.97;8.37;;;;;;;6.22;29.74;99568.31;6717859;29;20255;-81
2024/01/09 14:13:36;;;;;;;13.13;8.00;;;;;;;6.47;29.10;99547.84;6710156;29;20233;-79
2024/01/09 14:16:58;;;;;;;12.40;7.80;;;;;;;5.98;28.79;99551.28;6708297;29;20264;-80
2024/01/09 14:20:21;;;;;;;13.53;8.23;;;;;;;6.31;28.87;99567.34;6709400;29;20266;-80
2024/01/09 14:23:42;;;;;;;11.77;8.57;;;;;;;5.85;29.57;99562.38;6707787;29;20700;-80
2024/01/09 14:27:04;;;;;;;12.33;8.53;;;;;;;6.16;29.20;99560.94;6707010;29;20374;-81
2024/01/09 14:30:25;;;;;;;10.77;7.80;;;;;;;6.32;29.10;99534.22;6707907;29;20697;-80
2024/01/09 14:33:47;;;;;;;10.67;8.07;;;;;;;6.28;29.58;99566.84;6708044;29;20697;-81
2024/01/09 14:37:10;;;;;;;10.97;8.83;;;;;;;5.38;29.96;99571.72;6705980;29;20383;-81
2024/01/09 14:40:31;;;;;;;14.13;8.27;;;;;;;5.55;30.66;99551.28;6707643;29;20210;-80
2024/01/09 14:43:53;;;;;;;11.70;8.07;;;;;;;5.81;29.83;99547.66;6730011;29;20273;-82
2024/01/09 14:47:15;;;;;;;9.97;8.17;;;;;;;5.89;29.23;99504.88;6731855;29;20233;-81
2024/01/09 14:50:36;;;;;;;12.67;8.23;;;;;;;5.87;29.86;99554.22;6732424;29;20241;-81
2024/01/09 14:53:59;;;;;;;11.90;8.77;;;;;;;5.26;30.59;99548.84;6731766;29;20216;-81
2024/01/09 14:57:21;;;;;;;9.67;8.30;;;;;;;6.10;29.96;99566.06;6731756;29;20232;-81
2024/01/09 15:00:43;;;;;;;13.80;8.30;;;;;;;5.54;30.33;99568.34;6731893;29;20256;-82
2024/01/09 15:04:04;;;;;;;11.57;8.50;;;;;;;5.71;30.73;99562.94;6731777;29;20372;-80
2024/01/09 15:07:26;;;;;;;12.83;8.90;;;;;;;5.63;30.55;99570.06;6731032;29;20933;-81
2024/01/09 15:10:49;;;;;;;11.07;8.83;;;;;;;5.86;30.30;99557.88;6732358;29;20303;-80
2024/01/09 15:14:12;;;;;;;13.23;9.00;;;;;;;5.66;29.95;99565.22;6732464;29;20216;-79
2024/01/09 15:17:33;;;;;;;11.87;8.03;;;;;;;6.01;30.53;99548.31;6731641;29;20249;-81
2024/01/09 15:20:55;;;;;;;12.30;7.93;;;;;;;5.06;30.88;99571.38;6732628;29;20220;-82
2024/01/09 15:24:16;;;;;;;12.80;8.37;;;;;;;5.64;30.34;99569.91;6741389;29;20330;-81
2024/01/09 15:27:39;;;;;;;9.87;7.90;;;;;;;5.88;30.40;99575.47;6740555;29;20229;-81
2024/01/09 15:31:01;;;;;;;12.37;8.40;;;;;;;5.75;30.89;99582.19;6734964;29;20261;-80
2024/01/09 15:34:23;;;;;;;9.30;7.20;;;;;;;5.97;30.58;99579.91;6734794;29;20733;-80
2024/01/09 15:37:45;;;;;;;13.33;8.50;;;;;;;5.35;30.95;99571.16;6732624;29;20269;-80
2024/01/09 15:41:08;;;;;;;19.10;10.57;;;;;;;5.66;30.80;99573.25;6731984;29;20251;-82
2024/01/09 15:44:31;;;;;;;72.97;31.00;;;;;;;5.62;31.23;99587.09;6733239;29;20335;-80
2024/01/09 15:47:54;;;;;;;92.70;38.47;;;;;;;5.39;31.44;99581.41;6731612;29;20232;-81
2024/01/09 15:51:18;;;;;;;22.97;13.93;;;;;;;5.21;31.89;99585.06;6735954;29;20273;-82